KOEO

L O Simenstad Municipal Airport

Osceola, Wisconsin, USA
METAR KOEO 182135Z AUTO 24005KT 10SM SCT043 28/16 A3004 RMK AO2 T02760164
Observed Flight Rules
Aug-18 @ 21:35 UTC (17 minutes ago) Visual Flight Rules
Wind Visibility Clouds
240° at 5 knots 10 miles
  • Scattered at 4,300' AGL
Temperatures Readings
Current 28°C / 82°F
Dewpoint 16°C / 61°F
Humidity 48%
Altimeter 30.04" Hg
Pressure 1017 hPa
Elevation 275
METAR KOEO 182135Z AUTO 24005KT 10SM SCT043 28/16 A3004 RMK AO2 T02760164
Observed Flight Rules
Aug-18 @ 21:35 UTC
(17 minutes ago)
VFR
Wind Visibility
240° at 5 knots 10 miles
Clouds
  • Scattered at 4,300' AGL
Temperature Dewpoint
28°C / 82°F 16°C / 61°F
Humidity Altimeter Pressure
48% 30.04" Hg 1017 hPa